sensor_id;sensor_type;location;lat;lon;timestamp;P1;durP1;ratioP1;P2;durP2;ratioP2
47299;SDS011;33036;51.320;17.234;2022-07-23T00:01:33;14.13;;;9.65;;
47299;SDS011;33036;51.320;17.234;2022-07-23T00:05:34;18.27;;;9.63;;
47299;SDS011;33036;51.320;17.234;2022-07-23T00:09:35;13.77;;;9.90;;
47299;SDS011;33036;51.320;17.234;2022-07-23T00:13:36;15.25;;;10.13;;
47299;SDS011;33036;51.320;17.234;2022-07-23T00:17:37;17.40;;;9.98;;
47299;SDS011;33036;51.320;17.234;2022-07-23T00:21:38;23.98;;;9.23;;
47299;SDS011;33036;51.320;17.234;2022-07-23T00:25:39;12.85;;;9.10;;
47299;SDS011;33036;51.320;17.234;2022-07-23T00:29:40;12.07;;;9.20;;
47299;SDS011;33036;51.320;17.234;2022-07-23T00:33:41;15.02;;;8.95;;
47299;SDS011;33036;51.320;17.234;2022-07-23T00:37:42;12.93;;;9.52;;
47299;SDS011;33036;51.320;17.234;2022-07-23T00:41:43;16.45;;;9.77;;
47299;SDS011;33036;51.320;17.234;2022-07-23T00:45:44;15.38;;;9.15;;
47299;SDS011;33036;51.320;17.234;2022-07-23T00:49:44;12.65;;;8.98;;
47299;SDS011;33036;51.320;17.234;2022-07-23T00:53:45;13.98;;;9.00;;
47299;SDS011;33036;51.320;17.234;2022-07-23T00:57:46;13.05;;;9.18;;
47299;SDS011;33036;51.320;17.234;2022-07-23T01:01:48;13.95;;;9.43;;
47299;SDS011;33036;51.320;17.234;2022-07-23T01:05:49;13.25;;;9.05;;
47299;SDS011;33036;51.320;17.234;2022-07-23T01:09:50;12.93;;;9.70;;
47299;SDS011;33036;51.320;17.234;2022-07-23T01:13:52;16.00;;;9.20;;
47299;SDS011;33036;51.320;17.234;2022-07-23T01:17:54;14.85;;;9.48;;
47299;SDS011;33036;51.320;17.234;2022-07-23T01:21:55;15.38;;;9.70;;
47299;SDS011;33036;51.320;17.234;2022-07-23T01:25:58;19.40;;;9.88;;
47299;SDS011;33036;51.320;17.234;2022-07-23T01:30:03;18.95;;;10.23;;
47299;SDS011;33036;51.320;17.234;2022-07-23T01:34:05;16.42;;;10.00;;
47299;SDS011;33036;51.320;17.234;2022-07-23T01:38:07;12.25;;;9.25;;
47299;SDS011;33036;51.320;17.234;2022-07-23T01:42:08;14.95;;;8.80;;
47299;SDS011;33036;51.320;17.234;2022-07-23T01:46:09;12.90;;;10.10;;
47299;SDS011;33036;51.320;17.234;2022-07-23T01:50:10;18.02;;;9.95;;
47299;SDS011;33036;51.320;17.234;2022-07-23T01:54:11;13.88;;;10.23;;
47299;SDS011;33036;51.320;17.234;2022-07-23T01:58:12;17.67;;;10.27;;
47299;SDS011;33036;51.320;17.234;2022-07-23T02:02:13;17.38;;;10.35;;
47299;SDS011;33036;51.320;17.234;2022-07-23T02:06:14;14.68;;;10.30;;
47299;SDS011;33036;51.320;17.234;2022-07-23T02:10:15;14.85;;;10.18;;
47299;SDS011;33036;51.320;17.234;2022-07-23T02:14:16;17.17;;;10.48;;
47299;SDS011;33036;51.320;17.234;2022-07-23T02:18:17;14.48;;;10.20;;
47299;SDS011;33036;51.320;17.234;2022-07-23T02:22:18;16.02;;;10.43;;
47299;SDS011;33036;51.320;17.234;2022-07-23T02:26:19;15.93;;;10.20;;
47299;SDS011;33036;51.320;17.234;2022-07-23T02:30:23;15.40;;;10.90;;
47299;SDS011;33036;51.320;17.234;2022-07-23T02:34:24;16.60;;;10.50;;
47299;SDS011;33036;51.320;17.234;2022-07-23T02:38:25;13.48;;;9.23;;
47299;SDS011;33036;51.320;17.234;2022-07-23T02:42:26;12.20;;;9.60;;
47299;SDS011;33036;51.320;17.234;2022-07-23T02:46:27;13.13;;;9.60;;
47299;SDS011;33036;51.320;17.234;2022-07-23T02:50:28;13.13;;;9.70;;
47299;SDS011;33036;51.320;17.234;2022-07-23T02:54:29;11.80;;;8.85;;
47299;SDS011;33036;51.320;17.234;2022-07-23T02:58:30;10.93;;;8.82;;
47299;SDS011;33036;51.320;17.234;2022-07-23T03:02:31;13.68;;;8.68;;
47299;SDS011;33036;51.320;17.234;2022-07-23T03:06:32;12.85;;;8.77;;
47299;SDS011;33036;51.320;17.234;2022-07-23T03:10:33;13.70;;;7.70;;
47299;SDS011;33036;51.320;17.234;2022-07-23T03:14:34;12.40;;;8.45;;
47299;SDS011;33036;51.320;17.234;2022-07-23T03:18:35;12.50;;;7.72;;
47299;SDS011;33036;51.320;17.234;2022-07-23T03:22:36;8.50;;;7.13;;
47299;SDS011;33036;51.320;17.234;2022-07-23T03:26:37;11.60;;;7.55;;
47299;SDS011;33036;51.320;17.234;2022-07-23T03:30:38;12.65;;;7.47;;
47299;SDS011;33036;51.320;17.234;2022-07-23T03:34:39;8.38;;;7.45;;
47299;SDS011;33036;51.320;17.234;2022-07-23T03:38:40;10.05;;;7.95;;
47299;SDS011;33036;51.320;17.234;2022-07-23T03:42:41;12.98;;;7.38;;
47299;SDS011;33036;51.320;17.234;2022-07-23T03:46:42;12.05;;;7.88;;
47299;SDS011;33036;51.320;17.234;2022-07-23T03:50:43;12.02;;;8.52;;
47299;SDS011;33036;51.320;17.234;2022-07-23T03:54:47;15.70;;;8.73;;
47299;SDS011;33036;51.320;17.234;2022-07-23T03:58:48;9.80;;;8.07;;
47299;SDS011;33036;51.320;17.234;2022-07-23T04:02:49;10.50;;;8.05;;
47299;SDS011;33036;51.320;17.234;2022-07-23T04:06:50;11.07;;;8.57;;
47299;SDS011;33036;51.320;17.234;2022-07-23T04:10:51;9.40;;;8.23;;
47299;SDS011;33036;51.320;17.234;2022-07-23T04:14:52;12.80;;;8.30;;
47299;SDS011;33036;51.320;17.234;2022-07-23T04:18:53;11.48;;;8.25;;
47299;SDS011;33036;51.320;17.234;2022-07-23T04:22:54;11.70;;;7.40;;
47299;SDS011;33036;51.320;17.234;2022-07-23T04:26:55;10.75;;;7.18;;
47299;SDS011;33036;51.320;17.234;2022-07-23T04:30:56;12.32;;;7.47;;
47299;SDS011;33036;51.320;17.234;2022-07-23T04:34:57;12.23;;;6.95;;
47299;SDS011;33036;51.320;17.234;2022-07-23T04:38:58;9.35;;;6.70;;
47299;SDS011;33036;51.320;17.234;2022-07-23T04:42:59;11.60;;;7.10;;
47299;SDS011;33036;51.320;17.234;2022-07-23T04:47:00;10.40;;;7.43;;
47299;SDS011;33036;51.320;17.234;2022-07-23T04:51:01;10.82;;;6.85;;
47299;SDS011;33036;51.320;17.234;2022-07-23T04:55:03;9.60;;;7.00;;
47299;SDS011;33036;51.320;17.234;2022-07-23T04:59:04;8.90;;;6.65;;
47299;SDS011;33036;51.320;17.234;2022-07-23T05:03:05;12.23;;;6.60;;
47299;SDS011;33036;51.320;17.234;2022-07-23T05:07:06;10.57;;;6.68;;
47299;SDS011;33036;51.320;17.234;2022-07-23T05:11:07;14.00;;;7.07;;
47299;SDS011;33036;51.320;17.234;2022-07-23T05:15:07;7.97;;;6.53;;
47299;SDS011;33036;51.320;17.234;2022-07-23T05:19:09;8.50;;;7.05;;
47299;SDS011;33036;51.320;17.234;2022-07-23T05:23:09;15.27;;;7.30;;
47299;SDS011;33036;51.320;17.234;2022-07-23T05:27:10;9.68;;;7.40;;
47299;SDS011;33036;51.320;17.234;2022-07-23T05:31:11;11.88;;;7.70;;
47299;SDS011;33036;51.320;17.234;2022-07-23T05:35:14;9.93;;;7.90;;
47299;SDS011;33036;51.320;17.234;2022-07-23T05:39:15;12.50;;;7.70;;
47299;SDS011;33036;51.320;17.234;2022-07-23T05:43:16;11.00;;;7.55;;
47299;SDS011;33036;51.320;17.234;2022-07-23T05:47:17;12.02;;;8.27;;
47299;SDS011;33036;51.320;17.234;2022-07-23T05:51:19;12.25;;;8.32;;
47299;SDS011;33036;51.320;17.234;2022-07-23T05:55:21;13.18;;;8.10;;
47299;SDS011;33036;51.320;17.234;2022-07-23T05:59:22;9.90;;;7.82;;
47299;SDS011;33036;51.320;17.234;2022-07-23T06:03:23;12.60;;;7.88;;
47299;SDS011;33036;51.320;17.234;2022-07-23T06:07:25;11.82;;;8.30;;
47299;SDS011;33036;51.320;17.234;2022-07-23T06:11:26;12.75;;;8.48;;
47299;SDS011;33036;51.320;17.234;2022-07-23T06:15:30;14.88;;;8.13;;
47299;SDS011;33036;51.320;17.234;2022-07-23T06:19:30;13.63;;;8.90;;
47299;SDS011;33036;51.320;17.234;2022-07-23T06:23:31;11.98;;;8.45;;
47299;SDS011;33036;51.320;17.234;2022-07-23T06:27:32;10.95;;;8.57;;
47299;SDS011;33036;51.320;17.234;2022-07-23T06:31:34;16.17;;;8.57;;
47299;SDS011;33036;51.320;17.234;2022-07-23T06:35:35;14.07;;;8.93;;
47299;SDS011;33036;51.320;17.234;2022-07-23T06:39:38;12.07;;;8.55;;
47299;SDS011;33036;51.320;17.234;2022-07-23T06:43:39;10.73;;;8.65;;
47299;SDS011;33036;51.320;17.234;2022-07-23T06:47:40;12.68;;;9.30;;
47299;SDS011;33036;51.320;17.234;2022-07-23T06:51:42;13.10;;;9.10;;
47299;SDS011;33036;51.320;17.234;2022-07-23T06:55:45;15.48;;;8.40;;
47299;SDS011;33036;51.320;17.234;2022-07-23T06:59:46;17.70;;;8.63;;
47299;SDS011;33036;51.320;17.234;2022-07-23T07:03:48;11.13;;;8.65;;
47299;SDS011;33036;51.320;17.234;2022-07-23T07:07:48;15.95;;;8.38;;
47299;SDS011;33036;51.320;17.234;2022-07-23T07:11:50;12.88;;;8.88;;
47299;SDS011;33036;51.320;17.234;2022-07-23T07:15:50;11.32;;;8.63;;
47299;SDS011;33036;51.320;17.234;2022-07-23T07:19:51;11.77;;;9.00;;
47299;SDS011;33036;51.320;17.234;2022-07-23T07:23:52;14.60;;;8.90;;
47299;SDS011;33036;51.320;17.234;2022-07-23T07:27:53;14.15;;;8.43;;
47299;SDS011;33036;51.320;17.234;2022-07-23T07:31:54;12.32;;;8.52;;
47299;SDS011;33036;51.320;17.234;2022-07-23T07:35:55;19.75;;;8.02;;
47299;SDS011;33036;51.320;17.234;2022-07-23T07:39:56;13.50;;;8.45;;
47299;SDS011;33036;51.320;17.234;2022-07-23T07:43:57;11.63;;;9.00;;
47299;SDS011;33036;51.320;17.234;2022-07-23T07:47:58;11.50;;;9.02;;
47299;SDS011;33036;51.320;17.234;2022-07-23T07:51:59;13.25;;;8.55;;
47299;SDS011;33036;51.320;17.234;2022-07-23T07:56:00;14.98;;;10.15;;
47299;SDS011;33036;51.320;17.234;2022-07-23T08:00:01;16.10;;;10.27;;
47299;SDS011;33036;51.320;17.234;2022-07-23T08:04:02;18.90;;;11.05;;
47299;SDS011;33036;51.320;17.234;2022-07-23T08:08:04;13.10;;;8.77;;
47299;SDS011;33036;51.320;17.234;2022-07-23T08:12:05;21.73;;;9.18;;
47299;SDS011;33036;51.320;17.234;2022-07-23T08:16:06;14.13;;;9.73;;
47299;SDS011;33036;51.320;17.234;2022-07-23T08:20:07;15.65;;;9.23;;
47299;SDS011;33036;51.320;17.234;2022-07-23T08:24:09;15.25;;;9.43;;
47299;SDS011;33036;51.320;17.234;2022-07-23T08:28:11;13.85;;;9.25;;
47299;SDS011;33036;51.320;17.234;2022-07-23T08:32:13;16.83;;;9.82;;
47299;SDS011;33036;51.320;17.234;2022-07-23T08:36:13;16.25;;;9.32;;
47299;SDS011;33036;51.320;17.234;2022-07-23T08:40:15;14.73;;;8.55;;
47299;SDS011;33036;51.320;17.234;2022-07-23T08:44:16;12.82;;;8.60;;
47299;SDS011;33036;51.320;17.234;2022-07-23T08:48:18;18.40;;;9.15;;
47299;SDS011;33036;51.320;17.234;2022-07-23T08:52:23;17.15;;;9.02;;
47299;SDS011;33036;51.320;17.234;2022-07-23T08:56:25;16.48;;;8.55;;
47299;SDS011;33036;51.320;17.234;2022-07-23T09:00:26;11.80;;;8.82;;
47299;SDS011;33036;51.320;17.234;2022-07-23T09:04:28;13.80;;;8.45;;
47299;SDS011;33036;51.320;17.234;2022-07-23T09:12:39;12.52;;;9.63;;
47299;SDS011;33036;51.320;17.234;2022-07-23T09:16:41;15.32;;;9.30;;
47299;SDS011;33036;51.320;17.234;2022-07-23T09:20:44;16.15;;;9.68;;
47299;SDS011;33036;51.320;17.234;2022-07-23T09:29:16;13.85;;;8.65;;
47299;SDS011;33036;51.320;17.234;2022-07-23T09:33:22;12.15;;;8.85;;
47299;SDS011;33036;51.320;17.234;2022-07-23T09:37:25;11.77;;;8.63;;
47299;SDS011;33036;51.320;17.234;2022-07-23T09:41:27;16.25;;;9.43;;
47299;SDS011;33036;51.320;17.234;2022-07-23T09:45:35;16.27;;;8.95;;
47299;SDS011;33036;51.320;17.234;2022-07-23T09:49:36;15.48;;;9.27;;
47299;SDS011;33036;51.320;17.234;2022-07-23T09:53:37;14.48;;;8.68;;
47299;SDS011;33036;51.320;17.234;2022-07-23T09:57:38;21.25;;;9.48;;
47299;SDS011;33036;51.320;17.234;2022-07-23T10:01:41;12.82;;;8.82;;
47299;SDS011;33036;51.320;17.234;2022-07-23T10:05:42;13.25;;;8.73;;
47299;SDS011;33036;51.320;17.234;2022-07-23T10:09:44;10.80;;;8.63;;
47299;SDS011;33036;51.320;17.234;2022-07-23T10:13:47;15.38;;;8.23;;
47299;SDS011;33036;51.320;17.234;2022-07-23T10:22:21;10.75;;;8.95;;
47299;SDS011;33036;51.320;17.234;2022-07-23T10:26:29;22.20;;;11.38;;
47299;SDS011;33036;51.320;17.234;2022-07-23T10:39:31;23.10;;;12.82;;
47299;SDS011;33036;51.320;17.234;2022-07-23T10:43:34;27.25;;;14.23;;
47299;SDS011;33036;51.320;17.234;2022-07-23T10:47:35;27.75;;;13.77;;
47299;SDS011;33036;51.320;17.234;2022-07-23T10:52:14;24.00;;;13.25;;
47299;SDS011;33036;51.320;17.234;2022-07-23T10:56:17;20.83;;;10.63;;
47299;SDS011;33036;51.320;17.234;2022-07-23T11:00:39;17.65;;;11.25;;
47299;SDS011;33036;51.320;17.234;2022-07-23T11:04:50;19.75;;;10.88;;
47299;SDS011;33036;51.320;17.234;2022-07-23T11:13:28;14.52;;;10.20;;
47299;SDS011;33036;51.320;17.234;2022-07-23T11:17:31;17.50;;;9.88;;
47299;SDS011;33036;51.320;17.234;2022-07-23T11:25:37;20.95;;;9.88;;
47299;SDS011;33036;51.320;17.234;2022-07-23T11:29:39;12.90;;;10.25;;
47299;SDS011;33036;51.320;17.234;2022-07-23T11:33:41;14.45;;;9.82;;
47299;SDS011;33036;51.320;17.234;2022-07-23T11:37:42;18.15;;;10.95;;
47299;SDS011;33036;51.320;17.234;2022-07-23T11:41:48;19.08;;;11.77;;
47299;SDS011;33036;51.320;17.234;2022-07-23T11:45:51;18.00;;;11.38;;
47299;SDS011;33036;51.320;17.234;2022-07-23T11:49:55;17.77;;;12.32;;
47299;SDS011;33036;51.320;17.234;2022-07-23T11:54:05;20.15;;;12.63;;
47299;SDS011;33036;51.320;17.234;2022-07-23T11:58:06;15.35;;;11.68;;
47299;SDS011;33036;51.320;17.234;2022-07-23T12:02:07;19.92;;;13.23;;
47299;SDS011;33036;51.320;17.234;2022-07-23T12:06:08;22.67;;;13.60;;
47299;SDS011;33036;51.320;17.234;2022-07-23T12:14:15;20.65;;;11.93;;
47299;SDS011;33036;51.320;17.234;2022-07-23T12:18:17;16.83;;;11.95;;
47299;SDS011;33036;51.320;17.234;2022-07-23T12:22:20;15.88;;;12.13;;
47299;SDS011;33036;51.320;17.234;2022-07-23T12:26:22;20.58;;;11.82;;
47299;SDS011;33036;51.320;17.234;2022-07-23T12:30:24;16.63;;;11.40;;
47299;SDS011;33036;51.320;17.234;2022-07-23T12:34:26;17.05;;;12.13;;
47299;SDS011;33036;51.320;17.234;2022-07-23T12:38:28;13.48;;;11.35;;
47299;SDS011;33036;51.320;17.234;2022-07-23T12:46:43;14.57;;;11.45;;
47299;SDS011;33036;51.320;17.234;2022-07-23T12:55:01;14.38;;;11.13;;
47299;SDS011;33036;51.320;17.234;2022-07-23T13:03:24;16.98;;;9.52;;
47299;SDS011;33036;51.320;17.234;2022-07-23T13:07:29;15.63;;;10.50;;
47299;SDS011;33036;51.320;17.234;2022-07-23T13:11:30;11.65;;;9.45;;
47299;SDS011;33036;51.320;17.234;2022-07-23T13:15:31;17.23;;;9.25;;
47299;SDS011;33036;51.320;17.234;2022-07-23T13:19:32;9.93;;;8.75;;
47299;SDS011;33036;51.320;17.234;2022-07-23T13:23:34;12.07;;;8.75;;
47299;SDS011;33036;51.320;17.234;2022-07-23T13:27:35;15.30;;;9.80;;
47299;SDS011;33036;51.320;17.234;2022-07-23T13:31:36;15.25;;;9.50;;
47299;SDS011;33036;51.320;17.234;2022-07-23T13:35:38;16.17;;;9.98;;
47299;SDS011;33036;51.320;17.234;2022-07-23T13:39:39;13.10;;;9.55;;
47299;SDS011;33036;51.320;17.234;2022-07-23T13:43:40;12.30;;;9.82;;
47299;SDS011;33036;51.320;17.234;2022-07-23T13:47:41;15.57;;;9.55;;
47299;SDS011;33036;51.320;17.234;2022-07-23T13:51:42;17.17;;;11.07;;
47299;SDS011;33036;51.320;17.234;2022-07-23T13:55:43;17.58;;;10.32;;
47299;SDS011;33036;51.320;17.234;2022-07-23T13:59:45;15.90;;;10.02;;
47299;SDS011;33036;51.320;17.234;2022-07-23T14:03:46;14.15;;;9.45;;
47299;SDS011;33036;51.320;17.234;2022-07-23T14:07:47;12.00;;;9.68;;
47299;SDS011;33036;51.320;17.234;2022-07-23T14:11:50;12.02;;;8.68;;
47299;SDS011;33036;51.320;17.234;2022-07-23T14:15:51;12.25;;;9.23;;
47299;SDS011;33036;51.320;17.234;2022-07-23T14:19:52;14.68;;;9.00;;
47299;SDS011;33036;51.320;17.234;2022-07-23T14:23:53;11.57;;;9.23;;
47299;SDS011;33036;51.320;17.234;2022-07-23T14:27:54;14.90;;;9.60;;
47299;SDS011;33036;51.320;17.234;2022-07-23T14:31:55;15.60;;;9.77;;
47299;SDS011;33036;51.320;17.234;2022-07-23T14:35:57;15.13;;;9.38;;
47299;SDS011;33036;51.320;17.234;2022-07-23T14:39:59;13.25;;;9.25;;
47299;SDS011;33036;51.320;17.234;2022-07-23T14:44:00;14.50;;;10.05;;
47299;SDS011;33036;51.320;17.234;2022-07-23T14:48:02;13.05;;;10.15;;
47299;SDS011;33036;51.320;17.234;2022-07-23T14:52:05;17.80;;;9.70;;
47299;SDS011;33036;51.320;17.234;2022-07-23T14:56:07;14.63;;;10.02;;
47299;SDS011;33036;51.320;17.234;2022-07-23T15:00:08;12.75;;;9.98;;
47299;SDS011;33036;51.320;17.234;2022-07-23T15:04:09;18.83;;;11.77;;
47299;SDS011;33036;51.320;17.234;2022-07-23T15:08:10;15.25;;;11.18;;
47299;SDS011;33036;51.320;17.234;2022-07-23T15:12:11;21.85;;;13.57;;
47299;SDS011;33036;51.320;17.234;2022-07-23T15:16:12;18.10;;;12.32;;
47299;SDS011;33036;51.320;17.234;2022-07-23T15:20:13;16.75;;;11.52;;
47299;SDS011;33036;51.320;17.234;2022-07-23T15:24:14;17.52;;;12.15;;
47299;SDS011;33036;51.320;17.234;2022-07-23T15:28:15;14.25;;;10.85;;
47299;SDS011;33036;51.320;17.234;2022-07-23T15:32:16;10.63;;;9.52;;
47299;SDS011;33036;51.320;17.234;2022-07-23T15:36:18;15.60;;;10.15;;
47299;SDS011;33036;51.320;17.234;2022-07-23T15:40:20;13.18;;;10.98;;
47299;SDS011;33036;51.320;17.234;2022-07-23T15:44:22;14.38;;;9.85;;
47299;SDS011;33036;51.320;17.234;2022-07-23T15:48:22;14.98;;;10.38;;
47299;SDS011;33036;51.320;17.234;2022-07-23T15:52:24;12.05;;;9.45;;
47299;SDS011;33036;51.320;17.234;2022-07-23T15:56:24;15.40;;;10.40;;
47299;SDS011;33036;51.320;17.234;2022-07-23T16:00:26;15.30;;;10.95;;
47299;SDS011;33036;51.320;17.234;2022-07-23T16:04:26;13.02;;;10.50;;
47299;SDS011;33036;51.320;17.234;2022-07-23T16:08:28;12.25;;;10.63;;
47299;SDS011;33036;51.320;17.234;2022-07-23T16:12:29;13.88;;;11.55;;
47299;SDS011;33036;51.320;17.234;2022-07-23T16:16:30;13.70;;;11.10;;
47299;SDS011;33036;51.320;17.234;2022-07-23T16:20:31;15.25;;;11.80;;
47299;SDS011;33036;51.320;17.234;2022-07-23T16:24:32;13.70;;;11.02;;
47299;SDS011;33036;51.320;17.234;2022-07-23T16:28:33;12.10;;;10.77;;
47299;SDS011;33036;51.320;17.234;2022-07-23T16:32:33;16.38;;;11.25;;
47299;SDS011;33036;51.320;17.234;2022-07-23T16:36:35;13.15;;;11.32;;
47299;SDS011;33036;51.320;17.234;2022-07-23T16:40:38;12.02;;;10.75;;
47299;SDS011;33036;51.320;17.234;2022-07-23T16:44:40;13.15;;;10.30;;
47299;SDS011;33036;51.320;17.234;2022-07-23T16:48:43;13.75;;;9.95;;
47299;SDS011;33036;51.320;17.234;2022-07-23T16:52:43;14.38;;;10.38;;
47299;SDS011;33036;51.320;17.234;2022-07-23T16:56:45;12.98;;;10.68;;
47299;SDS011;33036;51.320;17.234;2022-07-23T17:00:46;16.50;;;11.27;;
47299;SDS011;33036;51.320;17.234;2022-07-23T17:04:47;12.68;;;10.15;;
47299;SDS011;33036;51.320;17.234;2022-07-23T17:08:48;13.82;;;10.80;;
47299;SDS011;33036;51.320;17.234;2022-07-23T17:12:49;17.73;;;11.30;;
47299;SDS011;33036;51.320;17.234;2022-07-23T17:16:51;14.45;;;10.25;;
47299;SDS011;33036;51.320;17.234;2022-07-23T17:20:52;16.05;;;9.80;;
47299;SDS011;33036;51.320;17.234;2022-07-23T17:24:53;13.52;;;9.98;;
47299;SDS011;33036;51.320;17.234;2022-07-23T17:28:54;11.18;;;9.18;;
47299;SDS011;33036;51.320;17.234;2022-07-23T17:32:54;13.50;;;10.02;;
47299;SDS011;33036;51.320;17.234;2022-07-23T17:36:56;12.43;;;9.50;;
47299;SDS011;33036;51.320;17.234;2022-07-23T17:40:56;13.00;;;9.00;;
47299;SDS011;33036;51.320;17.234;2022-07-23T17:44:58;13.15;;;8.60;;
47299;SDS011;33036;51.320;17.234;2022-07-23T17:49:00;14.10;;;8.57;;
47299;SDS011;33036;51.320;17.234;2022-07-23T17:53:01;9.55;;;8.07;;
47299;SDS011;33036;51.320;17.234;2022-07-23T17:57:02;13.82;;;8.57;;
47299;SDS011;33036;51.320;17.234;2022-07-23T18:01:04;9.82;;;8.23;;
47299;SDS011;33036;51.320;17.234;2022-07-23T18:05:05;11.60;;;8.00;;
47299;SDS011;33036;51.320;17.234;2022-07-23T18:09:08;11.65;;;7.57;;
47299;SDS011;33036;51.320;17.234;2022-07-23T18:13:09;12.27;;;7.50;;
47299;SDS011;33036;51.320;17.234;2022-07-23T18:17:10;12.40;;;8.57;;
47299;SDS011;33036;51.320;17.234;2022-07-23T18:21:11;11.70;;;7.97;;
47299;SDS011;33036;51.320;17.234;2022-07-23T18:25:13;11.57;;;8.20;;
47299;SDS011;33036;51.320;17.234;2022-07-23T18:29:14;13.85;;;8.32;;
47299;SDS011;33036;51.320;17.234;2022-07-23T18:33:15;9.27;;;8.30;;
47299;SDS011;33036;51.320;17.234;2022-07-23T18:37:16;12.35;;;8.32;;
47299;SDS011;33036;51.320;17.234;2022-07-23T18:41:17;13.55;;;8.13;;
47299;SDS011;33036;51.320;17.234;2022-07-23T18:45:20;9.73;;;8.73;;
47299;SDS011;33036;51.320;17.234;2022-07-23T18:49:21;11.18;;;8.07;;
47299;SDS011;33036;51.320;17.234;2022-07-23T18:53:22;9.65;;;8.50;;
47299;SDS011;33036;51.320;17.234;2022-07-23T18:57:23;10.45;;;8.75;;
47299;SDS011;33036;51.320;17.234;2022-07-23T19:01:24;14.77;;;9.70;;
47299;SDS011;33036;51.320;17.234;2022-07-23T19:05:30;16.23;;;8.80;;
47299;SDS011;33036;51.320;17.234;2022-07-23T19:09:31;13.02;;;9.10;;
47299;SDS011;33036;51.320;17.234;2022-07-23T19:13:32;14.38;;;9.20;;
47299;SDS011;33036;51.320;17.234;2022-07-23T19:17:33;11.35;;;9.05;;
47299;SDS011;33036;51.320;17.234;2022-07-23T19:21:35;11.70;;;8.65;;
47299;SDS011;33036;51.320;17.234;2022-07-23T19:25:36;12.07;;;7.90;;
47299;SDS011;33036;51.320;17.234;2022-07-23T19:29:37;18.27;;;9.65;;
47299;SDS011;33036;51.320;17.234;2022-07-23T19:33:38;15.15;;;9.40;;
47299;SDS011;33036;51.320;17.234;2022-07-23T19:37:39;12.07;;;8.82;;
47299;SDS011;33036;51.320;17.234;2022-07-23T19:41:40;13.10;;;8.98;;
47299;SDS011;33036;51.320;17.234;2022-07-23T19:45:41;12.45;;;8.80;;
47299;SDS011;33036;51.320;17.234;2022-07-23T19:49:42;12.35;;;9.07;;
47299;SDS011;33036;51.320;17.234;2022-07-23T19:53:44;11.20;;;7.88;;
47299;SDS011;33036;51.320;17.234;2022-07-23T19:57:45;11.23;;;7.85;;
47299;SDS011;33036;51.320;17.234;2022-07-23T20:01:46;16.15;;;7.95;;
47299;SDS011;33036;51.320;17.234;2022-07-23T20:05:48;9.93;;;7.63;;
47299;SDS011;33036;51.320;17.234;2022-07-23T20:09:49;12.00;;;7.75;;
47299;SDS011;33036;51.320;17.234;2022-07-23T20:13:50;10.43;;;7.70;;
47299;SDS011;33036;51.320;17.234;2022-07-23T20:17:51;10.05;;;7.43;;
47299;SDS011;33036;51.320;17.234;2022-07-23T20:21:52;13.70;;;8.05;;
47299;SDS011;33036;51.320;17.234;2022-07-23T20:25:54;9.55;;;7.55;;
47299;SDS011;33036;51.320;17.234;2022-07-23T20:29:55;9.52;;;7.95;;
47299;SDS011;33036;51.320;17.234;2022-07-23T20:33:57;12.20;;;7.35;;
47299;SDS011;33036;51.320;17.234;2022-07-23T20:37:58;11.82;;;7.60;;
47299;SDS011;33036;51.320;17.234;2022-07-23T20:41:59;10.02;;;7.13;;
47299;SDS011;33036;51.320;17.234;2022-07-23T20:46:00;12.13;;;7.63;;
47299;SDS011;33036;51.320;17.234;2022-07-23T20:50:01;9.63;;;6.97;;
47299;SDS011;33036;51.320;17.234;2022-07-23T20:54:03;12.43;;;7.85;;
47299;SDS011;33036;51.320;17.234;2022-07-23T20:58:05;9.32;;;7.70;;
47299;SDS011;33036;51.320;17.234;2022-07-23T21:02:06;11.98;;;7.32;;
47299;SDS011;33036;51.320;17.234;2022-07-23T21:06:07;16.42;;;7.65;;
47299;SDS011;33036;51.320;17.234;2022-07-23T21:10:09;11.70;;;7.07;;
47299;SDS011;33036;51.320;17.234;2022-07-23T21:14:11;13.50;;;7.75;;
47299;SDS011;33036;51.320;17.234;2022-07-23T21:18:12;12.20;;;7.68;;
47299;SDS011;33036;51.320;17.234;2022-07-23T21:22:13;10.82;;;7.45;;
47299;SDS011;33036;51.320;17.234;2022-07-23T21:26:15;14.82;;;7.25;;
47299;SDS011;33036;51.320;17.234;2022-07-23T21:30:17;11.18;;;8.18;;
47299;SDS011;33036;51.320;17.234;2022-07-23T21:34:20;13.55;;;7.85;;
47299;SDS011;33036;51.320;17.234;2022-07-23T21:38:25;12.48;;;7.38;;
47299;SDS011;33036;51.320;17.234;2022-07-23T21:42:25;18.20;;;8.23;;
47299;SDS011;33036;51.320;17.234;2022-07-23T21:46:27;11.35;;;8.25;;
47299;SDS011;33036;51.320;17.234;2022-07-23T21:50:30;16.45;;;8.32;;
47299;SDS011;33036;51.320;17.234;2022-07-23T21:54:32;12.70;;;8.18;;
47299;SDS011;33036;51.320;17.234;2022-07-23T21:58:34;17.27;;;8.80;;
47299;SDS011;33036;51.320;17.234;2022-07-23T22:02:36;11.18;;;7.63;;
47299;SDS011;33036;51.320;17.234;2022-07-23T22:06:36;13.77;;;7.60;;
47299;SDS011;33036;51.320;17.234;2022-07-23T22:10:38;12.05;;;8.35;;
47299;SDS011;33036;51.320;17.234;2022-07-23T22:14:39;14.15;;;8.60;;
47299;SDS011;33036;51.320;17.234;2022-07-23T22:18:40;15.45;;;9.27;;
47299;SDS011;33036;51.320;17.234;2022-07-23T22:22:41;11.60;;;8.20;;
47299;SDS011;33036;51.320;17.234;2022-07-23T22:26:46;11.05;;;8.15;;
47299;SDS011;33036;51.320;17.234;2022-07-23T22:30:47;11.60;;;8.18;;
47299;SDS011;33036;51.320;17.234;2022-07-23T22:34:49;12.13;;;7.93;;
47299;SDS011;33036;51.320;17.234;2022-07-23T22:38:50;18.42;;;8.20;;
47299;SDS011;33036;51.320;17.234;2022-07-23T22:42:51;16.00;;;8.40;;
47299;SDS011;33036;51.320;17.234;2022-07-23T22:46:52;15.85;;;8.35;;
47299;SDS011;33036;51.320;17.234;2022-07-23T22:50:53;14.00;;;8.75;;
47299;SDS011;33036;51.320;17.234;2022-07-23T22:54:54;12.00;;;8.15;;
47299;SDS011;33036;51.320;17.234;2022-07-23T22:58:55;14.88;;;7.95;;
47299;SDS011;33036;51.320;17.234;2022-07-23T23:02:56;18.85;;;7.97;;
47299;SDS011;33036;51.320;17.234;2022-07-23T23:06:57;14.82;;;7.97;;
47299;SDS011;33036;51.320;17.234;2022-07-23T23:10:58;12.90;;;7.93;;
47299;SDS011;33036;51.320;17.234;2022-07-23T23:14:59;14.35;;;8.23;;
47299;SDS011;33036;51.320;17.234;2022-07-23T23:19:00;21.08;;;8.85;;
47299;SDS011;33036;51.320;17.234;2022-07-23T23:23:01;15.50;;;7.82;;
47299;SDS011;33036;51.320;17.234;2022-07-23T23:27:02;14.65;;;7.70;;
47299;SDS011;33036;51.320;17.234;2022-07-23T23:31:03;17.38;;;8.18;;
47299;SDS011;33036;51.320;17.234;2022-07-23T23:35:04;11.27;;;8.40;;
47299;SDS011;33036;51.320;17.234;2022-07-23T23:39:06;13.48;;;8.05;;
47299;SDS011;33036;51.320;17.234;2022-07-23T23:43:07;18.58;;;8.70;;
47299;SDS011;33036;51.320;17.234;2022-07-23T23:47:09;12.32;;;8.15;;
47299;SDS011;33036;51.320;17.234;2022-07-23T23:51:10;13.48;;;7.97;;
47299;SDS011;33036;51.320;17.234;2022-07-23T23:55:12;13.63;;;8.23;;
47299;SDS011;33036;51.320;17.234;2022-07-23T23:59:13;13.13;;;8.60;;
